sensor_id;sensor_type;location;lat;lon;timestamp;temperature;humidity
5086;DHT22;4715;51.660;7.082;2023-03-01T00:00:08;1.30;99.90
5086;DHT22;4715;51.660;7.082;2023-03-01T00:02:30;1.30;99.90
5086;DHT22;4715;51.660;7.082;2023-03-01T00:04:52;1.30;99.90
5086;DHT22;4715;51.660;7.082;2023-03-01T00:07:15;1.30;99.90
5086;DHT22;4715;51.660;7.082;2023-03-01T00:09:37;1.40;99.90
5086;DHT22;4715;51.660;7.082;2023-03-01T00:12:00;1.40;99.90
5086;DHT22;4715;51.660;7.082;2023-03-01T00:14:22;1.40;99.90
5086;DHT22;4715;51.660;7.082;2023-03-01T00:16:45;1.50;99.90
5086;DHT22;4715;51.660;7.082;2023-03-01T00:19:11;1.50;99.90
5086;DHT22;4715;51.660;7.082;2023-03-01T00:21:33;1.50;99.90
5086;DHT22;4715;51.660;7.082;2023-03-01T00:23:57;1.50;99.90
5086;DHT22;4715;51.660;7.082;2023-03-01T00:26:20;1.50;99.90
5086;DHT22;4715;51.660;7.082;2023-03-01T00:28:43;1.50;99.90
5086;DHT22;4715;51.660;7.082;2023-03-01T00:31:06;1.50;99.90
5086;DHT22;4715;51.660;7.082;2023-03-01T00:33:28;1.50;99.90
5086;DHT22;4715;51.660;7.082;2023-03-01T00:35:50;1.50;99.90
5086;DHT22;4715;51.660;7.082;2023-03-01T00:38:13;1.40;99.90
5086;DHT22;4715;51.660;7.082;2023-03-01T00:40:36;1.50;99.90
5086;DHT22;4715;51.660;7.082;2023-03-01T00:42:58;1.40;99.90
5086;DHT22;4715;51.660;7.082;2023-03-01T00:45:20;1.50;99.90
5086;DHT22;4715;51.660;7.082;2023-03-01T00:47:42;1.40;99.90
5086;DHT22;4715;51.660;7.082;2023-03-01T00:50:04;1.40;99.90
5086;DHT22;4715;51.660;7.082;2023-03-01T00:52:26;1.40;99.90
5086;DHT22;4715;51.660;7.082;2023-03-01T00:54:51;1.30;99.90
5086;DHT22;4715;51.660;7.082;2023-03-01T00:57:14;1.40;99.90
5086;DHT22;4715;51.660;7.082;2023-03-01T00:59:36;1.30;99.90
5086;DHT22;4715;51.660;7.082;2023-03-01T01:01:58;1.30;99.90
5086;DHT22;4715;51.660;7.082;2023-03-01T01:04:20;1.30;99.90
5086;DHT22;4715;51.660;7.082;2023-03-01T01:06:45;1.20;99.90
5086;DHT22;4715;51.660;7.082;2023-03-01T01:09:08;1.20;99.90
5086;DHT22;4715;51.660;7.082;2023-03-01T01:11:31;1.20;99.90
5086;DHT22;4715;51.660;7.082;2023-03-01T01:13:55;1.20;99.90
5086;DHT22;4715;51.660;7.082;2023-03-01T01:16:19;1.20;99.90
5086;DHT22;4715;51.660;7.082;2023-03-01T01:18:41;1.20;99.90
5086;DHT22;4715;51.660;7.082;2023-03-01T01:21:05;1.20;99.90
5086;DHT22;4715;51.660;7.082;2023-03-01T01:23:27;1.10;99.90
5086;DHT22;4715;51.660;7.082;2023-03-01T01:25:49;1.10;99.90
5086;DHT22;4715;51.660;7.082;2023-03-01T01:28:10;1.10;99.90
5086;DHT22;4715;51.660;7.082;2023-03-01T01:30:33;1.10;99.90
5086;DHT22;4715;51.660;7.082;2023-03-01T01:32:55;1.10;99.90
5086;DHT22;4715;51.660;7.082;2023-03-01T01:35:17;1.10;99.90
5086;DHT22;4715;51.660;7.082;2023-03-01T01:37:39;1.10;99.90
5086;DHT22;4715;51.660;7.082;2023-03-01T01:40:01;1.00;99.90
5086;DHT22;4715;51.660;7.082;2023-03-01T01:42:25;1.00;99.90
5086;DHT22;4715;51.660;7.082;2023-03-01T01:44:47;1.00;99.90
5086;DHT22;4715;51.660;7.082;2023-03-01T01:47:15;1.00;99.90
5086;DHT22;4715;51.660;7.082;2023-03-01T01:49:42;0.90;99.90
5086;DHT22;4715;51.660;7.082;2023-03-01T01:52:08;0.90;99.90
5086;DHT22;4715;51.660;7.082;2023-03-01T01:54:37;0.90;99.90
5086;DHT22;4715;51.660;7.082;2023-03-01T01:57:03;0.90;99.90
5086;DHT22;4715;51.660;7.082;2023-03-01T01:59:29;0.90;99.90
5086;DHT22;4715;51.660;7.082;2023-03-01T02:01:52;0.90;99.90
5086;DHT22;4715;51.660;7.082;2023-03-01T02:04:15;0.80;99.90
5086;DHT22;4715;51.660;7.082;2023-03-01T02:06:41;0.80;99.90
5086;DHT22;4715;51.660;7.082;2023-03-01T02:09:10;0.80;99.90
5086;DHT22;4715;51.660;7.082;2023-03-01T02:11:33;0.80;99.90
5086;DHT22;4715;51.660;7.082;2023-03-01T02:13:58;0.80;99.90
5086;DHT22;4715;51.660;7.082;2023-03-01T02:16:20;0.80;99.90
5086;DHT22;4715;51.660;7.082;2023-03-01T02:18:42;0.80;99.90
5086;DHT22;4715;51.660;7.082;2023-03-01T02:21:25;0.80;99.90
5086;DHT22;4715;51.660;7.082;2023-03-01T02:23:50;0.80;99.90
5086;DHT22;4715;51.660;7.082;2023-03-01T02:26:18;0.70;99.90
5086;DHT22;4715;51.660;7.082;2023-03-01T02:28:43;0.70;99.90
5086;DHT22;4715;51.660;7.082;2023-03-01T02:31:06;0.70;99.90
5086;DHT22;4715;51.660;7.082;2023-03-01T02:33:45;0.60;99.90
5086;DHT22;4715;51.660;7.082;2023-03-01T02:36:10;0.60;99.90
5086;DHT22;4715;51.660;7.082;2023-03-01T02:38:33;0.60;99.90
5086;DHT22;4715;51.660;7.082;2023-03-01T02:40:56;0.50;99.90
5086;DHT22;4715;51.660;7.082;2023-03-01T02:43:19;0.60;99.90
5086;DHT22;4715;51.660;7.082;2023-03-01T02:45:50;0.50;99.90
5086;DHT22;4715;51.660;7.082;2023-03-01T02:48:13;0.50;99.90
5086;DHT22;4715;51.660;7.082;2023-03-01T02:50:50;0.50;99.90
5086;DHT22;4715;51.660;7.082;2023-03-01T02:53:15;0.50;99.90
5086;DHT22;4715;51.660;7.082;2023-03-01T02:55:38;0.50;99.90
5086;DHT22;4715;51.660;7.082;2023-03-01T02:58:02;0.50;99.90
5086;DHT22;4715;51.660;7.082;2023-03-01T03:00:26;0.50;99.90
5086;DHT22;4715;51.660;7.082;2023-03-01T03:02:52;0.50;99.90
5086;DHT22;4715;51.660;7.082;2023-03-01T03:05:17;0.50;99.90
5086;DHT22;4715;51.660;7.082;2023-03-01T03:07:40;0.50;99.90
5086;DHT22;4715;51.660;7.082;2023-03-01T03:10:04;0.40;99.90
5086;DHT22;4715;51.660;7.082;2023-03-01T03:12:26;0.40;99.90
5086;DHT22;4715;51.660;7.082;2023-03-01T03:14:48;0.30;99.90
5086;DHT22;4715;51.660;7.082;2023-03-01T03:17:09;0.30;99.90
5086;DHT22;4715;51.660;7.082;2023-03-01T03:19:33;0.30;99.90
5086;DHT22;4715;51.660;7.082;2023-03-01T03:21:55;0.30;99.90
5086;DHT22;4715;51.660;7.082;2023-03-01T03:24:16;0.30;99.90
5086;DHT22;4715;51.660;7.082;2023-03-01T03:26:38;0.30;99.90
5086;DHT22;4715;51.660;7.082;2023-03-01T03:29:00;0.30;99.90
5086;DHT22;4715;51.660;7.082;2023-03-01T03:31:22;0.30;99.90
5086;DHT22;4715;51.660;7.082;2023-03-01T03:33:44;0.30;99.90
5086;DHT22;4715;51.660;7.082;2023-03-01T03:36:08;0.30;99.90
5086;DHT22;4715;51.660;7.082;2023-03-01T03:38:33;0.30;99.90
5086;DHT22;4715;51.660;7.082;2023-03-01T03:41:01;0.30;99.90
5086;DHT22;4715;51.660;7.082;2023-03-01T03:43:23;0.30;99.90
5086;DHT22;4715;51.660;7.082;2023-03-01T03:45:46;0.30;99.90
5086;DHT22;4715;51.660;7.082;2023-03-01T03:48:09;0.20;99.90
5086;DHT22;4715;51.660;7.082;2023-03-01T03:50:31;0.20;99.90
5086;DHT22;4715;51.660;7.082;2023-03-01T03:52:55;0.20;99.90
5086;DHT22;4715;51.660;7.082;2023-03-01T03:55:17;0.20;99.90
5086;DHT22;4715;51.660;7.082;2023-03-01T03:57:41;0.20;99.90
5086;DHT22;4715;51.660;7.082;2023-03-01T04:00:05;0.20;99.90
5086;DHT22;4715;51.660;7.082;2023-03-01T04:02:33;0.20;99.90
5086;DHT22;4715;51.660;7.082;2023-03-01T04:04:54;0.20;99.90
5086;DHT22;4715;51.660;7.082;2023-03-01T04:07:16;0.20;99.90
5086;DHT22;4715;51.660;7.082;2023-03-01T04:09:40;0.10;99.90
5086;DHT22;4715;51.660;7.082;2023-03-01T04:12:03;0.10;99.90
5086;DHT22;4715;51.660;7.082;2023-03-01T04:14:24;0.10;99.90
5086;DHT22;4715;51.660;7.082;2023-03-01T04:16:46;0.10;99.90
5086;DHT22;4715;51.660;7.082;2023-03-01T04:19:08;0.10;99.90
5086;DHT22;4715;51.660;7.082;2023-03-01T04:21:30;0.10;99.90
5086;DHT22;4715;51.660;7.082;2023-03-01T04:23:52;0.10;99.90
5086;DHT22;4715;51.660;7.082;2023-03-01T04:26:15;0.00;99.90
5086;DHT22;4715;51.660;7.082;2023-03-01T04:28:39;0.00;99.90
5086;DHT22;4715;51.660;7.082;2023-03-01T04:31:05;0.00;99.90
5086;DHT22;4715;51.660;7.082;2023-03-01T04:33:33;0.00;99.90
5086;DHT22;4715;51.660;7.082;2023-03-01T04:35:55;0.00;99.90
5086;DHT22;4715;51.660;7.082;2023-03-01T04:38:18;0.00;99.90
5086;DHT22;4715;51.660;7.082;2023-03-01T04:40:41;0.00;99.90
5086;DHT22;4715;51.660;7.082;2023-03-01T04:43:05;0.10;99.90
5086;DHT22;4715;51.660;7.082;2023-03-01T04:45:26;0.10;99.90
5086;DHT22;4715;51.660;7.082;2023-03-01T04:47:48;0.10;99.90
5086;DHT22;4715;51.660;7.082;2023-03-01T04:50:14;0.10;99.90
5086;DHT22;4715;51.660;7.082;2023-03-01T04:52:37;0.10;99.90
5086;DHT22;4715;51.660;7.082;2023-03-01T04:54:58;0.10;99.90
5086;DHT22;4715;51.660;7.082;2023-03-01T04:57:20;0.10;99.90
5086;DHT22;4715;51.660;7.082;2023-03-01T04:59:44;0.10;99.90
5086;DHT22;4715;51.660;7.082;2023-03-01T05:02:06;0.10;99.90
5086;DHT22;4715;51.660;7.082;2023-03-01T05:24:13;-0.30;99.90
5086;DHT22;4715;51.660;7.082;2023-03-01T05:26:35;-0.30;99.90
5086;DHT22;4715;51.660;7.082;2023-03-01T05:29:00;-0.30;99.90
5086;DHT22;4715;51.660;7.082;2023-03-01T05:31:22;-0.20;99.90
5086;DHT22;4715;51.660;7.082;2023-03-01T05:33:44;-0.20;99.90
5086;DHT22;4715;51.660;7.082;2023-03-01T05:36:07;-0.20;99.90
5086;DHT22;4715;51.660;7.082;2023-03-01T05:38:30;-0.20;99.90
5086;DHT22;4715;51.660;7.082;2023-03-01T05:40:53;-0.20;99.90
5086;DHT22;4715;51.660;7.082;2023-03-01T05:43:16;-0.20;99.90
5086;DHT22;4715;51.660;7.082;2023-03-01T05:45:38;-0.20;99.90
5086;DHT22;4715;51.660;7.082;2023-03-01T05:48:01;-0.20;99.90
5086;DHT22;4715;51.660;7.082;2023-03-01T05:50:24;-0.20;99.90
5086;DHT22;4715;51.660;7.082;2023-03-01T05:52:48;-0.20;99.90
5086;DHT22;4715;51.660;7.082;2023-03-01T05:55:10;-0.20;99.90
5086;DHT22;4715;51.660;7.082;2023-03-01T05:57:34;-0.20;99.90
5086;DHT22;4715;51.660;7.082;2023-03-01T05:59:55;-0.20;99.90
5086;DHT22;4715;51.660;7.082;2023-03-01T06:02:17;-0.30;99.90
5086;DHT22;4715;51.660;7.082;2023-03-01T06:04:40;-0.30;99.90
5086;DHT22;4715;51.660;7.082;2023-03-01T06:07:02;-0.30;99.90
5086;DHT22;4715;51.660;7.082;2023-03-01T06:09:23;-0.30;99.90
5086;DHT22;4715;51.660;7.082;2023-03-01T06:11:46;-0.30;99.90
5086;DHT22;4715;51.660;7.082;2023-03-01T06:14:09;-0.30;99.90
5086;DHT22;4715;51.660;7.082;2023-03-01T06:16:36;-0.30;99.90
5086;DHT22;4715;51.660;7.082;2023-03-01T06:18:58;-0.30;99.90
5086;DHT22;4715;51.660;7.082;2023-03-01T06:21:20;-0.30;99.90
5086;DHT22;4715;51.660;7.082;2023-03-01T06:23:42;-0.30;99.90
5086;DHT22;4715;51.660;7.082;2023-03-01T06:26:06;-0.30;99.90
5086;DHT22;4715;51.660;7.082;2023-03-01T06:28:28;-0.30;99.90
5086;DHT22;4715;51.660;7.082;2023-03-01T06:30:51;-0.30;99.90
5086;DHT22;4715;51.660;7.082;2023-03-01T06:33:14;-0.30;99.90
5086;DHT22;4715;51.660;7.082;2023-03-01T06:35:36;-0.30;99.90
5086;DHT22;4715;51.660;7.082;2023-03-01T06:37:58;-0.30;99.90
5086;DHT22;4715;51.660;7.082;2023-03-01T06:40:20;-0.30;99.90
5086;DHT22;4715;51.660;7.082;2023-03-01T06:42:47;-0.30;99.90
5086;DHT22;4715;51.660;7.082;2023-03-01T06:45:10;-0.30;99.90
5086;DHT22;4715;51.660;7.082;2023-03-01T06:47:33;-0.30;99.90
5086;DHT22;4715;51.660;7.082;2023-03-01T06:49:55;-0.30;99.90
5086;DHT22;4715;51.660;7.082;2023-03-01T06:52:17;-0.30;99.90
5086;DHT22;4715;51.660;7.082;2023-03-01T06:54:39;-0.20;99.90
5086;DHT22;4715;51.660;7.082;2023-03-01T06:57:02;-0.20;99.90
5086;DHT22;4715;51.660;7.082;2023-03-01T06:59:24;-0.10;99.90
5086;DHT22;4715;51.660;7.082;2023-03-01T07:01:46;-0.10;99.90
5086;DHT22;4715;51.660;7.082;2023-03-01T07:04:09;-0.10;99.90
5086;DHT22;4715;51.660;7.082;2023-03-01T07:06:31;0.00;99.90
5086;DHT22;4715;51.660;7.082;2023-03-01T07:08:53;0.00;99.90
5086;DHT22;4715;51.660;7.082;2023-03-01T07:11:15;0.00;99.90
5086;DHT22;4715;51.660;7.082;2023-03-01T07:13:37;0.10;99.90
5086;DHT22;4715;51.660;7.082;2023-03-01T07:15:59;0.10;99.90
5086;DHT22;4715;51.660;7.082;2023-03-01T07:18:22;0.10;99.90
5086;DHT22;4715;51.660;7.082;2023-03-01T07:20:45;0.10;99.90
5086;DHT22;4715;51.660;7.082;2023-03-01T07:23:07;0.20;99.90
5086;DHT22;4715;51.660;7.082;2023-03-01T07:25:28;0.30;99.90
5086;DHT22;4715;51.660;7.082;2023-03-01T07:27:51;0.30;99.90
5086;DHT22;4715;51.660;7.082;2023-03-01T07:30:13;0.40;99.90
5086;DHT22;4715;51.660;7.082;2023-03-01T07:32:35;0.50;99.90
5086;DHT22;4715;51.660;7.082;2023-03-01T07:34:57;0.60;99.90
5086;DHT22;4715;51.660;7.082;2023-03-01T07:37:20;0.70;99.90
5086;DHT22;4715;51.660;7.082;2023-03-01T07:39:42;0.90;99.90
5086;DHT22;4715;51.660;7.082;2023-03-01T07:42:04;1.00;99.90
5086;DHT22;4715;51.660;7.082;2023-03-01T07:44:26;1.10;99.90
5086;DHT22;4715;51.660;7.082;2023-03-01T07:46:48;1.20;99.90
5086;DHT22;4715;51.660;7.082;2023-03-01T07:49:12;1.30;99.90
5086;DHT22;4715;51.660;7.082;2023-03-01T07:51:34;1.30;99.90
5086;DHT22;4715;51.660;7.082;2023-03-01T07:53:57;1.30;99.90
5086;DHT22;4715;51.660;7.082;2023-03-01T07:56:19;1.40;99.90
5086;DHT22;4715;51.660;7.082;2023-03-01T07:58:43;1.40;99.90
5086;DHT22;4715;51.660;7.082;2023-03-01T08:01:07;1.40;99.90
5086;DHT22;4715;51.660;7.082;2023-03-01T08:03:29;1.40;99.90
5086;DHT22;4715;51.660;7.082;2023-03-01T08:05:51;1.50;99.90
5086;DHT22;4715;51.660;7.082;2023-03-01T08:08:13;1.50;99.90
5086;DHT22;4715;51.660;7.082;2023-03-01T08:10:36;1.50;99.90
5086;DHT22;4715;51.660;7.082;2023-03-01T08:12:58;1.60;99.90
5086;DHT22;4715;51.660;7.082;2023-03-01T08:15:20;1.60;99.90
5086;DHT22;4715;51.660;7.082;2023-03-01T08:17:42;1.70;99.90
5086;DHT22;4715;51.660;7.082;2023-03-01T08:20:05;1.70;99.90
5086;DHT22;4715;51.660;7.082;2023-03-01T08:22:27;1.80;99.90
5086;DHT22;4715;51.660;7.082;2023-03-01T08:24:49;1.80;99.90
5086;DHT22;4715;51.660;7.082;2023-03-01T08:27:14;1.90;99.90
5086;DHT22;4715;51.660;7.082;2023-03-01T08:29:38;1.90;99.90
5086;DHT22;4715;51.660;7.082;2023-03-01T08:32:00;2.00;99.90
5086;DHT22;4715;51.660;7.082;2023-03-01T08:34:22;2.00;99.90
5086;DHT22;4715;51.660;7.082;2023-03-01T08:36:47;2.10;99.90
5086;DHT22;4715;51.660;7.082;2023-03-01T08:39:14;2.20;99.90
5086;DHT22;4715;51.660;7.082;2023-03-01T08:41:36;2.30;99.90
5086;DHT22;4715;51.660;7.082;2023-03-01T08:44:00;2.30;99.90
5086;DHT22;4715;51.660;7.082;2023-03-01T08:46:21;2.40;99.90
5086;DHT22;4715;51.660;7.082;2023-03-01T08:48:43;2.50;99.90
5086;DHT22;4715;51.660;7.082;2023-03-01T08:51:08;2.60;99.90
5086;DHT22;4715;51.660;7.082;2023-03-01T08:53:32;2.60;99.90
5086;DHT22;4715;51.660;7.082;2023-03-01T08:55:53;2.70;99.90
5086;DHT22;4715;51.660;7.082;2023-03-01T08:58:18;2.80;99.90
5086;DHT22;4715;51.660;7.082;2023-03-01T09:00:41;2.90;99.90
5086;DHT22;4715;51.660;7.082;2023-03-01T09:03:03;3.00;99.90
5086;DHT22;4715;51.660;7.082;2023-03-01T09:05:26;3.10;99.90
5086;DHT22;4715;51.660;7.082;2023-03-01T09:07:48;3.10;99.90
5086;DHT22;4715;51.660;7.082;2023-03-01T09:10:10;3.20;99.90
5086;DHT22;4715;51.660;7.082;2023-03-01T09:12:32;3.30;99.90
5086;DHT22;4715;51.660;7.082;2023-03-01T09:14:54;3.30;99.90
5086;DHT22;4715;51.660;7.082;2023-03-01T09:17:19;3.40;99.90
5086;DHT22;4715;51.660;7.082;2023-03-01T09:19:42;3.40;99.90
5086;DHT22;4715;51.660;7.082;2023-03-01T09:22:03;3.50;99.90
5086;DHT22;4715;51.660;7.082;2023-03-01T09:24:26;3.60;99.90
5086;DHT22;4715;51.660;7.082;2023-03-01T09:26:47;3.70;99.90
5086;DHT22;4715;51.660;7.082;2023-03-01T09:29:10;3.70;99.90
5086;DHT22;4715;51.660;7.082;2023-03-01T09:31:32;3.80;99.90
5086;DHT22;4715;51.660;7.082;2023-03-01T09:33:58;3.90;99.90
5086;DHT22;4715;51.660;7.082;2023-03-01T09:36:22;4.00;99.90
5086;DHT22;4715;51.660;7.082;2023-03-01T09:38:46;4.10;99.90
5086;DHT22;4715;51.660;7.082;2023-03-01T09:41:11;4.20;99.90
5086;DHT22;4715;51.660;7.082;2023-03-01T09:43:45;4.30;99.90
5086;DHT22;4715;51.660;7.082;2023-03-01T09:46:11;4.40;99.90
5086;DHT22;4715;51.660;7.082;2023-03-01T09:48:41;4.50;99.90
5086;DHT22;4715;51.660;7.082;2023-03-01T09:51:09;4.70;99.90
5086;DHT22;4715;51.660;7.082;2023-03-01T09:53:34;4.80;99.90
5086;DHT22;4715;51.660;7.082;2023-03-01T09:56:00;4.90;99.90
5086;DHT22;4715;51.660;7.082;2023-03-01T09:58:36;5.00;99.90
5086;DHT22;4715;51.660;7.082;2023-03-01T10:01:23;5.10;99.90
5086;DHT22;4715;51.660;7.082;2023-03-01T10:04:02;5.20;99.90
5086;DHT22;4715;51.660;7.082;2023-03-01T10:06:30;5.30;99.90
5086;DHT22;4715;51.660;7.082;2023-03-01T10:08:55;5.40;99.90
5086;DHT22;4715;51.660;7.082;2023-03-01T10:11:20;5.50;99.90
5086;DHT22;4715;51.660;7.082;2023-03-01T10:13:46;5.70;99.90
5086;DHT22;4715;51.660;7.082;2023-03-01T10:16:13;5.80;99.90
5086;DHT22;4715;51.660;7.082;2023-03-01T10:18:37;5.90;99.90
5086;DHT22;4715;51.660;7.082;2023-03-01T10:21:02;5.90;99.90
5086;DHT22;4715;51.660;7.082;2023-03-01T10:23:28;6.00;99.90
5086;DHT22;4715;51.660;7.082;2023-03-01T10:26:08;6.10;99.90
5086;DHT22;4715;51.660;7.082;2023-03-01T10:28:39;6.20;99.90
5086;DHT22;4715;51.660;7.082;2023-03-01T10:31:03;6.30;99.90
5086;DHT22;4715;51.660;7.082;2023-03-01T10:33:27;6.40;99.90
5086;DHT22;4715;51.660;7.082;2023-03-01T10:35:51;6.40;99.90
5086;DHT22;4715;51.660;7.082;2023-03-01T10:38:14;6.40;99.90
5086;DHT22;4715;51.660;7.082;2023-03-01T10:40:51;6.40;99.90
5086;DHT22;4715;51.660;7.082;2023-03-01T10:43:14;6.50;99.90
5086;DHT22;4715;51.660;7.082;2023-03-01T10:45:38;6.70;99.90
5086;DHT22;4715;51.660;7.082;2023-03-01T10:48:12;6.80;99.90
5086;DHT22;4715;51.660;7.082;2023-03-01T10:50:34;6.90;99.90
5086;DHT22;4715;51.660;7.082;2023-03-01T10:52:59;6.90;99.90
5086;DHT22;4715;51.660;7.082;2023-03-01T10:55:27;6.90;99.90
5086;DHT22;4715;51.660;7.082;2023-03-01T10:58:06;6.90;99.90
5086;DHT22;4715;51.660;7.082;2023-03-01T11:00:29;7.00;99.90
5086;DHT22;4715;51.660;7.082;2023-03-01T11:03:03;7.10;99.90
5086;DHT22;4715;51.660;7.082;2023-03-01T11:05:26;7.20;99.90
5086;DHT22;4715;51.660;7.082;2023-03-01T11:07:50;7.20;99.90
5086;DHT22;4715;51.660;7.082;2023-03-01T11:10:15;7.30;99.90
5086;DHT22;4715;51.660;7.082;2023-03-01T11:12:38;7.40;99.90
5086;DHT22;4715;51.660;7.082;2023-03-01T11:15:02;7.50;99.90
5086;DHT22;4715;51.660;7.082;2023-03-01T11:17:27;7.60;99.90
5086;DHT22;4715;51.660;7.082;2023-03-01T11:20:00;7.60;99.90
5086;DHT22;4715;51.660;7.082;2023-03-01T11:22:24;7.70;99.90
5086;DHT22;4715;51.660;7.082;2023-03-01T11:24:47;7.70;99.90
5086;DHT22;4715;51.660;7.082;2023-03-01T11:27:19;7.70;99.90
5086;DHT22;4715;51.660;7.082;2023-03-01T11:29:45;7.80;99.90
5086;DHT22;4715;51.660;7.082;2023-03-01T11:32:14;7.90;99.90
5086;DHT22;4715;51.660;7.082;2023-03-01T11:34:42;8.00;99.90
5086;DHT22;4715;51.660;7.082;2023-03-01T11:37:13;8.00;99.90
5086;DHT22;4715;51.660;7.082;2023-03-01T11:39:39;8.10;99.90
5086;DHT22;4715;51.660;7.082;2023-03-01T11:42:06;8.20;99.90
5086;DHT22;4715;51.660;7.082;2023-03-01T11:44:35;8.20;99.90
5086;DHT22;4715;51.660;7.082;2023-03-01T11:47:10;8.20;99.90
5086;DHT22;4715;51.660;7.082;2023-03-01T11:49:54;8.30;99.90
5086;DHT22;4715;51.660;7.082;2023-03-01T11:52:22;8.40;99.90
5086;DHT22;4715;51.660;7.082;2023-03-01T11:54:57;8.40;99.90
5086;DHT22;4715;51.660;7.082;2023-03-01T11:57:35;8.40;99.90
5086;DHT22;4715;51.660;7.082;2023-03-01T12:00:30;8.50;99.90
5086;DHT22;4715;51.660;7.082;2023-03-01T12:03:16;8.50;99.90
5086;DHT22;4715;51.660;7.082;2023-03-01T12:06:02;8.50;99.90
5086;DHT22;4715;51.660;7.082;2023-03-01T12:08:42;8.60;99.90
5086;DHT22;4715;51.660;7.082;2023-03-01T12:11:20;8.60;99.90
5086;DHT22;4715;51.660;7.082;2023-03-01T12:14:04;8.70;99.90
5086;DHT22;4715;51.660;7.082;2023-03-01T12:16:36;8.70;99.90
5086;DHT22;4715;51.660;7.082;2023-03-01T12:19:22;8.80;99.90
5086;DHT22;4715;51.660;7.082;2023-03-01T12:22:11;8.80;99.90
5086;DHT22;4715;51.660;7.082;2023-03-01T12:24:55;8.80;99.90
5086;DHT22;4715;51.660;7.082;2023-03-01T12:27:43;8.90;99.90
5086;DHT22;4715;51.660;7.082;2023-03-01T12:30:21;9.00;99.80
5086;DHT22;4715;51.660;7.082;2023-03-01T12:32:53;9.00;99.30
5086;DHT22;4715;51.660;7.082;2023-03-01T12:35:28;9.00;99.30
5086;DHT22;4715;51.660;7.082;2023-03-01T12:38:00;8.90;98.70
5086;DHT22;4715;51.660;7.082;2023-03-01T12:40:51;8.90;98.90
5086;DHT22;4715;51.660;7.082;2023-03-01T12:43:26;9.00;98.80
5086;DHT22;4715;51.660;7.082;2023-03-01T12:46:10;9.10;98.60
5086;DHT22;4715;51.660;7.082;2023-03-01T12:48:46;9.10;98.10
5086;DHT22;4715;51.660;7.082;2023-03-01T12:51:15;9.10;97.80
5086;DHT22;4715;51.660;7.082;2023-03-01T12:53:42;9.00;97.80
5086;DHT22;4715;51.660;7.082;2023-03-01T12:56:07;9.00;97.70
5086;DHT22;4715;51.660;7.082;2023-03-01T12:58:32;9.00;97.70
5086;DHT22;4715;51.660;7.082;2023-03-01T13:01:08;9.10;97.70
5086;DHT22;4715;51.660;7.082;2023-03-01T13:03:48;9.30;97.70
5086;DHT22;4715;51.660;7.082;2023-03-01T13:06:21;9.40;97.60
5086;DHT22;4715;51.660;7.082;2023-03-01T13:08:56;9.60;96.90
5086;DHT22;4715;51.660;7.082;2023-03-01T13:11:22;9.70;96.50
5086;DHT22;4715;51.660;7.082;2023-03-01T13:13:44;9.70;96.00
5086;DHT22;4715;51.660;7.082;2023-03-01T13:16:40;9.80;96.40
5086;DHT22;4715;51.660;7.082;2023-03-01T13:19:12;10.00;96.30
5086;DHT22;4715;51.660;7.082;2023-03-01T13:21:35;10.20;95.90
5086;DHT22;4715;51.660;7.082;2023-03-01T13:23:59;10.30;95.30
5086;DHT22;4715;51.660;7.082;2023-03-01T13:26:21;10.30;95.20
5086;DHT22;4715;51.660;7.082;2023-03-01T13:29:00;10.40;95.40
5086;DHT22;4715;51.660;7.082;2023-03-01T13:34:46;10.90;94.80
5086;DHT22;4715;51.660;7.082;2023-03-01T13:37:23;10.90;94.10
5086;DHT22;4715;51.660;7.082;2023-03-01T13:39:47;10.90;94.00
5086;DHT22;4715;51.660;7.082;2023-03-01T13:42:39;10.90;94.10
5086;DHT22;4715;51.660;7.082;2023-03-01T13:45:02;11.10;94.00
5086;DHT22;4715;51.660;7.082;2023-03-01T13:47:25;11.20;93.30
5086;DHT22;4715;51.660;7.082;2023-03-01T13:49:52;11.20;93.00
5086;DHT22;4715;51.660;7.082;2023-03-01T13:52:35;11.40;92.70
5086;DHT22;4715;51.660;7.082;2023-03-01T13:55:03;11.40;91.80
5086;DHT22;4715;51.660;7.082;2023-03-01T13:57:31;11.40;91.50
5086;DHT22;4715;51.660;7.082;2023-03-01T13:59:54;11.40;91.10
5086;DHT22;4715;51.660;7.082;2023-03-01T14:02:17;11.50;91.30
5086;DHT22;4715;51.660;7.082;2023-03-01T14:04:39;11.60;90.80
5086;DHT22;4715;51.660;7.082;2023-03-01T14:07:11;11.50;90.40
5086;DHT22;4715;51.660;7.082;2023-03-01T14:09:34;11.60;90.30
5086;DHT22;4715;51.660;7.082;2023-03-01T14:12:18;11.60;89.60
5086;DHT22;4715;51.660;7.082;2023-03-01T14:14:50;11.60;89.20
5086;DHT22;4715;51.660;7.082;2023-03-01T14:17:32;11.80;88.10
5086;DHT22;4715;51.660;7.082;2023-03-01T14:19:58;11.90;86.60
5086;DHT22;4715;51.660;7.082;2023-03-01T14:22:22;12.00;86.10
5086;DHT22;4715;51.660;7.082;2023-03-01T14:24:48;12.20;85.40
5086;DHT22;4715;51.660;7.082;2023-03-01T14:27:12;12.40;85.80
5086;DHT22;4715;51.660;7.082;2023-03-01T14:29:39;12.80;85.80
5086;DHT22;4715;51.660;7.082;2023-03-01T14:32:10;13.10;84.90
5086;DHT22;4715;51.660;7.082;2023-03-01T14:34:32;13.30;83.30
5086;DHT22;4715;51.660;7.082;2023-03-01T14:36:54;13.60;84.10
5086;DHT22;4715;51.660;7.082;2023-03-01T14:39:17;13.80;82.30
5086;DHT22;4715;51.660;7.082;2023-03-01T14:41:39;14.10;82.30
5086;DHT22;4715;51.660;7.082;2023-03-01T14:44:04;14.30;80.20
5086;DHT22;4715;51.660;7.082;2023-03-01T14:46:32;14.50;80.70
5086;DHT22;4715;51.660;7.082;2023-03-01T14:48:57;14.90;79.80
5086;DHT22;4715;51.660;7.082;2023-03-01T14:51:20;15.10;76.60
5086;DHT22;4715;51.660;7.082;2023-03-01T14:53:42;15.10;76.30
5086;DHT22;4715;51.660;7.082;2023-03-01T14:56:04;15.30;76.00
5086;DHT22;4715;51.660;7.082;2023-03-01T14:58:26;15.50;74.50
5086;DHT22;4715;51.660;7.082;2023-03-01T15:00:51;15.60;74.60
5086;DHT22;4715;51.660;7.082;2023-03-01T15:03:19;15.90;75.10
5086;DHT22;4715;51.660;7.082;2023-03-01T15:05:45;16.30;75.60
5086;DHT22;4715;51.660;7.082;2023-03-01T15:08:07;16.80;75.10
5086;DHT22;4715;51.660;7.082;2023-03-01T15:10:36;17.10;73.40
5086;DHT22;4715;51.660;7.082;2023-03-01T15:13:10;17.30;72.00
5086;DHT22;4715;51.660;7.082;2023-03-01T15:15:37;17.20;70.10
5086;DHT22;4715;51.660;7.082;2023-03-01T15:18:04;17.00;69.70
5086;DHT22;4715;51.660;7.082;2023-03-01T15:20:30;17.00;70.60
5086;DHT22;4715;51.660;7.082;2023-03-01T15:22:56;17.40;71.10
5086;DHT22;4715;51.660;7.082;2023-03-01T15:25:20;17.80;70.90
5086;DHT22;4715;51.660;7.082;2023-03-01T15:27:46;18.10;69.90
5086;DHT22;4715;51.660;7.082;2023-03-01T15:30:17;18.40;69.60
5086;DHT22;4715;51.660;7.082;2023-03-01T15:32:40;18.50;68.40
5086;DHT22;4715;51.660;7.082;2023-03-01T15:35:35;18.60;67.90
5086;DHT22;4715;51.660;7.082;2023-03-01T15:38:00;18.60;65.40
5086;DHT22;4715;51.660;7.082;2023-03-01T15:40:25;18.20;63.40
5086;DHT22;4715;51.660;7.082;2023-03-01T15:42:52;17.80;62.30
5086;DHT22;4715;51.660;7.082;2023-03-01T15:45:22;17.40;61.90
5086;DHT22;4715;51.660;7.082;2023-03-01T15:47:47;17.10;62.00
5086;DHT22;4715;51.660;7.082;2023-03-01T15:50:17;16.90;62.20
5086;DHT22;4715;51.660;7.082;2023-03-01T15:52:43;16.80;61.60
5086;DHT22;4715;51.660;7.082;2023-03-01T15:55:12;16.80;62.30
5086;DHT22;4715;51.660;7.082;2023-03-01T15:57:35;16.90;62.40
5086;DHT22;4715;51.660;7.082;2023-03-01T15:59:57;17.20;62.80
5086;DHT22;4715;51.660;7.082;2023-03-01T16:02:19;17.20;61.20
5086;DHT22;4715;51.660;7.082;2023-03-01T16:04:42;17.10;61.20
5086;DHT22;4715;51.660;7.082;2023-03-01T16:07:04;17.00;61.40
5086;DHT22;4715;51.660;7.082;2023-03-01T16:09:28;17.00;61.40
5086;DHT22;4715;51.660;7.082;2023-03-01T16:11:50;17.10;60.80
5086;DHT22;4715;51.660;7.082;2023-03-01T16:14:13;17.00;60.40
5086;DHT22;4715;51.660;7.082;2023-03-01T16:16:35;17.00;61.00
5086;DHT22;4715;51.660;7.082;2023-03-01T16:18:57;17.10;60.90
5086;DHT22;4715;51.660;7.082;2023-03-01T16:21:21;17.10;60.80
5086;DHT22;4715;51.660;7.082;2023-03-01T16:23:44;17.20;60.50